sensor_id;sensor_type;location;lat;lon;timestamp;P1;durP1;ratioP1;P2;durP2;ratioP2
56481;SDS011;42384;45.186;19.958;2023-03-18T00:01:17;14.93;;;9.02;;
56481;SDS011;42384;45.186;19.958;2023-03-18T00:03:43;14.02;;;8.43;;
56481;SDS011;42384;45.186;19.958;2023-03-18T00:06:11;21.27;;;10.43;;
56481;SDS011;42384;45.186;19.958;2023-03-18T00:08:38;17.20;;;9.70;;
56481;SDS011;42384;45.186;19.958;2023-03-18T00:11:05;16.70;;;9.05;;
56481;SDS011;42384;45.186;19.958;2023-03-18T00:15:59;17.77;;;8.88;;
56481;SDS011;42384;45.186;19.958;2023-03-18T00:18:26;22.63;;;11.80;;
56481;SDS011;42384;45.186;19.958;2023-03-18T00:20:52;16.35;;;9.23;;
56481;SDS011;42384;45.186;19.958;2023-03-18T00:23:18;25.50;;;14.02;;
56481;SDS011;42384;45.186;19.958;2023-03-18T00:25:46;12.85;;;8.05;;
56481;SDS011;42384;45.186;19.958;2023-03-18T00:28:13;13.23;;;7.03;;
56481;SDS011;42384;45.186;19.958;2023-03-18T00:30:40;22.10;;;10.80;;
56481;SDS011;42384;45.186;19.958;2023-03-18T00:33:07;11.65;;;6.70;;
56481;SDS011;42384;45.186;19.958;2023-03-18T00:35:34;16.05;;;7.65;;
56481;SDS011;42384;45.186;19.958;2023-03-18T00:38:01;12.65;;;7.25;;
56481;SDS011;42384;45.186;19.958;2023-03-18T00:40:31;13.20;;;6.60;;
56481;SDS011;42384;45.186;19.958;2023-03-18T00:43:30;14.65;;;7.65;;
56481;SDS011;42384;45.186;19.958;2023-03-18T00:45:58;11.82;;;6.30;;
56481;SDS011;42384;45.186;19.958;2023-03-18T00:48:24;13.07;;;6.43;;
56481;SDS011;42384;45.186;19.958;2023-03-18T00:53:18;13.43;;;6.90;;
56481;SDS011;42384;45.186;19.958;2023-03-18T00:58:12;14.48;;;8.15;;
56481;SDS011;42384;45.186;19.958;2023-03-18T01:00:39;15.68;;;9.93;;
56481;SDS011;42384;45.186;19.958;2023-03-18T01:05:32;14.50;;;9.07;;
56481;SDS011;42384;45.186;19.958;2023-03-18T01:07:58;16.58;;;8.32;;
56481;SDS011;42384;45.186;19.958;2023-03-18T01:12:52;18.90;;;9.88;;
56481;SDS011;42384;45.186;19.958;2023-03-18T01:15:19;21.92;;;11.90;;
56481;SDS011;42384;45.186;19.958;2023-03-18T01:17:47;17.13;;;10.07;;
56481;SDS011;42384;45.186;19.958;2023-03-18T01:20:16;16.83;;;11.38;;
56481;SDS011;42384;45.186;19.958;2023-03-18T01:22:43;22.35;;;11.90;;
56481;SDS011;42384;45.186;19.958;2023-03-18T01:25:10;19.02;;;10.82;;
56481;SDS011;42384;45.186;19.958;2023-03-18T01:27:37;17.05;;;10.15;;
56481;SDS011;42384;45.186;19.958;2023-03-18T01:30:04;18.83;;;11.45;;
56481;SDS011;42384;45.186;19.958;2023-03-18T01:32:31;20.35;;;10.32;;
56481;SDS011;42384;45.186;19.958;2023-03-18T01:34:58;17.95;;;10.20;;
56481;SDS011;42384;45.186;19.958;2023-03-18T01:37:24;22.25;;;12.25;;
56481;SDS011;42384;45.186;19.958;2023-03-18T01:39:51;20.95;;;11.27;;
56481;SDS011;42384;45.186;19.958;2023-03-18T01:42:17;21.80;;;11.10;;
56481;SDS011;42384;45.186;19.958;2023-03-18T01:44:45;21.23;;;10.75;;
56481;SDS011;42384;45.186;19.958;2023-03-18T01:47:12;24.07;;;12.03;;
56481;SDS011;42384;45.186;19.958;2023-03-18T01:49:47;20.70;;;10.68;;
56481;SDS011;42384;45.186;19.958;2023-03-18T01:52:16;19.70;;;10.57;;
56481;SDS011;42384;45.186;19.958;2023-03-18T01:54:44;18.05;;;10.57;;
56481;SDS011;42384;45.186;19.958;2023-03-18T01:57:11;14.70;;;8.85;;
56481;SDS011;42384;45.186;19.958;2023-03-18T01:59:39;16.63;;;9.37;;
56481;SDS011;42384;45.186;19.958;2023-03-18T02:02:08;17.98;;;9.35;;
56481;SDS011;42384;45.186;19.958;2023-03-18T02:04:39;17.35;;;9.73;;
56481;SDS011;42384;45.186;19.958;2023-03-18T02:07:06;16.80;;;9.00;;
56481;SDS011;42384;45.186;19.958;2023-03-18T02:09:33;18.70;;;9.65;;
56481;SDS011;42384;45.186;19.958;2023-03-18T02:12:00;15.50;;;8.60;;
56481;SDS011;42384;45.186;19.958;2023-03-18T02:14:26;17.40;;;9.25;;
56481;SDS011;42384;45.186;19.958;2023-03-18T02:16:55;18.77;;;10.55;;
56481;SDS011;42384;45.186;19.958;2023-03-18T02:19:29;17.60;;;9.73;;
56481;SDS011;42384;45.186;19.958;2023-03-18T02:29:42;13.55;;;8.32;;
56481;SDS011;42384;45.186;19.958;2023-03-18T02:32:09;22.67;;;10.05;;
56481;SDS011;42384;45.186;19.958;2023-03-18T02:34:36;20.07;;;8.53;;
56481;SDS011;42384;45.186;19.958;2023-03-18T02:37:05;16.63;;;9.15;;
56481;SDS011;42384;45.186;19.958;2023-03-18T02:41:58;15.40;;;7.30;;
56481;SDS011;42384;45.186;19.958;2023-03-18T02:44:25;18.88;;;9.05;;
56481;SDS011;42384;45.186;19.958;2023-03-18T02:46:52;20.13;;;9.63;;
56481;SDS011;42384;45.186;19.958;2023-03-18T02:49:20;21.90;;;9.43;;
56481;SDS011;42384;45.186;19.958;2023-03-18T02:51:47;25.08;;;9.07;;
56481;SDS011;42384;45.186;19.958;2023-03-18T02:54:32;20.13;;;9.90;;
56481;SDS011;42384;45.186;19.958;2023-03-18T02:56:59;17.35;;;8.07;;
56481;SDS011;42384;45.186;19.958;2023-03-18T02:59:27;14.50;;;7.53;;
56481;SDS011;42384;45.186;19.958;2023-03-18T03:01:54;15.73;;;8.35;;
56481;SDS011;42384;45.186;19.958;2023-03-18T03:04:21;15.82;;;8.15;;
56481;SDS011;42384;45.186;19.958;2023-03-18T03:06:47;15.27;;;8.35;;
56481;SDS011;42384;45.186;19.958;2023-03-18T03:09:15;15.48;;;8.20;;
56481;SDS011;42384;45.186;19.958;2023-03-18T03:11:42;18.23;;;9.13;;
56481;SDS011;42384;45.186;19.958;2023-03-18T03:14:09;18.40;;;8.85;;
56481;SDS011;42384;45.186;19.958;2023-03-18T03:16:35;16.42;;;8.63;;
56481;SDS011;42384;45.186;19.958;2023-03-18T03:19:02;18.00;;;9.70;;
56481;SDS011;42384;45.186;19.958;2023-03-18T03:21:29;17.00;;;9.48;;
56481;SDS011;42384;45.186;19.958;2023-03-18T03:23:56;16.48;;;9.38;;
56481;SDS011;42384;45.186;19.958;2023-03-18T03:26:22;16.98;;;8.95;;
56481;SDS011;42384;45.186;19.958;2023-03-18T03:28:49;17.13;;;8.50;;
56481;SDS011;42384;45.186;19.958;2023-03-18T03:31:15;17.55;;;9.05;;
56481;SDS011;42384;45.186;19.958;2023-03-18T03:33:42;17.48;;;9.00;;
56481;SDS011;42384;45.186;19.958;2023-03-18T03:36:12;18.15;;;9.00;;
56481;SDS011;42384;45.186;19.958;2023-03-18T03:38:39;17.48;;;9.52;;
56481;SDS011;42384;45.186;19.958;2023-03-18T03:41:07;15.13;;;8.63;;
56481;SDS011;42384;45.186;19.958;2023-03-18T03:43:39;18.02;;;9.45;;
56481;SDS011;42384;45.186;19.958;2023-03-18T03:46:06;17.60;;;9.48;;
56481;SDS011;42384;45.186;19.958;2023-03-18T03:48:33;16.60;;;9.45;;
56481;SDS011;42384;45.186;19.958;2023-03-18T03:51:00;17.45;;;10.57;;
56481;SDS011;42384;45.186;19.958;2023-03-18T03:53:26;17.33;;;9.45;;
56481;SDS011;42384;45.186;19.958;2023-03-18T03:55:53;16.50;;;9.53;;
56481;SDS011;42384;45.186;19.958;2023-03-18T04:00:46;18.88;;;10.27;;
56481;SDS011;42384;45.186;19.958;2023-03-18T04:03:13;19.02;;;11.20;;
56481;SDS011;42384;45.186;19.958;2023-03-18T04:05:39;17.60;;;10.63;;
56481;SDS011;42384;45.186;19.958;2023-03-18T04:08:06;18.42;;;10.98;;
56481;SDS011;42384;45.186;19.958;2023-03-18T04:10:32;19.60;;;10.93;;
56481;SDS011;42384;45.186;19.958;2023-03-18T04:13:01;20.30;;;11.43;;
56481;SDS011;42384;45.186;19.958;2023-03-18T04:15:27;17.50;;;11.10;;
56481;SDS011;42384;45.186;19.958;2023-03-18T04:17:54;18.50;;;11.35;;
56481;SDS011;42384;45.186;19.958;2023-03-18T04:20:20;19.17;;;11.47;;
56481;SDS011;42384;45.186;19.958;2023-03-18T04:22:46;20.37;;;12.27;;
56481;SDS011;42384;45.186;19.958;2023-03-18T04:25:13;21.67;;;13.18;;
56481;SDS011;42384;45.186;19.958;2023-03-18T04:27:39;23.47;;;13.37;;
56481;SDS011;42384;45.186;19.958;2023-03-18T04:30:06;27.58;;;14.82;;
56481;SDS011;42384;45.186;19.958;2023-03-18T04:32:33;24.65;;;14.88;;
56481;SDS011;42384;45.186;19.958;2023-03-18T04:34:59;30.98;;;15.77;;
56481;SDS011;42384;45.186;19.958;2023-03-18T04:37:25;25.63;;;15.90;;
56481;SDS011;42384;45.186;19.958;2023-03-18T04:39:51;27.77;;;15.63;;
56481;SDS011;42384;45.186;19.958;2023-03-18T04:42:18;29.40;;;16.98;;
56481;SDS011;42384;45.186;19.958;2023-03-18T04:44:44;29.63;;;17.90;;
56481;SDS011;42384;45.186;19.958;2023-03-18T04:47:10;30.45;;;17.45;;
56481;SDS011;42384;45.186;19.958;2023-03-18T04:49:38;36.10;;;19.90;;
56481;SDS011;42384;45.186;19.958;2023-03-18T04:52:05;34.33;;;19.58;;
56481;SDS011;42384;45.186;19.958;2023-03-18T04:54:31;35.65;;;21.45;;
56481;SDS011;42384;45.186;19.958;2023-03-18T04:56:57;37.58;;;21.95;;
56481;SDS011;42384;45.186;19.958;2023-03-18T04:59:24;38.80;;;22.00;;
56481;SDS011;42384;45.186;19.958;2023-03-18T05:01:50;37.58;;;22.38;;
56481;SDS011;42384;45.186;19.958;2023-03-18T05:04:17;40.25;;;24.30;;
56481;SDS011;42384;45.186;19.958;2023-03-18T05:06:44;42.03;;;24.03;;
56481;SDS011;42384;45.186;19.958;2023-03-18T05:09:10;42.67;;;24.08;;
56481;SDS011;42384;45.186;19.958;2023-03-18T05:11:37;40.15;;;24.25;;
56481;SDS011;42384;45.186;19.958;2023-03-18T05:14:03;40.78;;;23.70;;
56481;SDS011;42384;45.186;19.958;2023-03-18T05:16:30;39.40;;;23.60;;
56481;SDS011;42384;45.186;19.958;2023-03-18T05:18:56;45.80;;;25.02;;
56481;SDS011;42384;45.186;19.958;2023-03-18T05:21:22;57.75;;;26.58;;
56481;SDS011;42384;45.186;19.958;2023-03-18T05:23:49;42.13;;;24.08;;
56481;SDS011;42384;45.186;19.958;2023-03-18T05:26:16;39.72;;;23.20;;
56481;SDS011;42384;45.186;19.958;2023-03-18T05:28:42;39.13;;;23.25;;
56481;SDS011;42384;45.186;19.958;2023-03-18T05:31:08;37.70;;;22.73;;
56481;SDS011;42384;45.186;19.958;2023-03-18T05:33:34;41.28;;;22.38;;
56481;SDS011;42384;45.186;19.958;2023-03-18T05:36:01;37.20;;;23.50;;
56481;SDS011;42384;45.186;19.958;2023-03-18T05:38:27;39.15;;;23.25;;
56481;SDS011;42384;45.186;19.958;2023-03-18T05:40:54;37.20;;;22.65;;
56481;SDS011;42384;45.186;19.958;2023-03-18T05:43:20;34.78;;;22.10;;
56481;SDS011;42384;45.186;19.958;2023-03-18T05:45:47;31.75;;;19.77;;
56481;SDS011;42384;45.186;19.958;2023-03-18T05:48:14;36.35;;;19.73;;
56481;SDS011;42384;45.186;19.958;2023-03-18T05:50:41;31.60;;;19.63;;
56481;SDS011;42384;45.186;19.958;2023-03-18T05:53:08;30.42;;;18.83;;
56481;SDS011;42384;45.186;19.958;2023-03-18T05:55:35;32.92;;;19.92;;
56481;SDS011;42384;45.186;19.958;2023-03-18T05:58:02;28.38;;;17.67;;
56481;SDS011;42384;45.186;19.958;2023-03-18T06:00:29;28.42;;;16.73;;
56481;SDS011;42384;45.186;19.958;2023-03-18T06:02:58;28.70;;;17.17;;
56481;SDS011;42384;45.186;19.958;2023-03-18T06:05:25;24.63;;;16.10;;
56481;SDS011;42384;45.186;19.958;2023-03-18T06:07:52;29.42;;;16.38;;
56481;SDS011;42384;45.186;19.958;2023-03-18T06:10:19;27.00;;;16.17;;
56481;SDS011;42384;45.186;19.958;2023-03-18T06:12:47;23.55;;;14.85;;
56481;SDS011;42384;45.186;19.958;2023-03-18T06:15:13;23.10;;;14.65;;
56481;SDS011;42384;45.186;19.958;2023-03-18T06:17:40;22.42;;;14.45;;
56481;SDS011;42384;45.186;19.958;2023-03-18T06:20:07;22.80;;;14.45;;
56481;SDS011;42384;45.186;19.958;2023-03-18T06:22:34;22.27;;;13.32;;
56481;SDS011;42384;45.186;19.958;2023-03-18T06:25:01;25.00;;;14.20;;
56481;SDS011;42384;45.186;19.958;2023-03-18T06:27:29;22.08;;;14.07;;
56481;SDS011;42384;45.186;19.958;2023-03-18T06:29:55;23.35;;;13.45;;
56481;SDS011;42384;45.186;19.958;2023-03-18T06:32:22;19.73;;;12.75;;
56481;SDS011;42384;45.186;19.958;2023-03-18T06:34:48;24.17;;;13.77;;
56481;SDS011;42384;45.186;19.958;2023-03-18T06:37:14;23.40;;;14.00;;
56481;SDS011;42384;45.186;19.958;2023-03-18T06:42:08;22.38;;;13.40;;
56481;SDS011;42384;45.186;19.958;2023-03-18T06:44:35;21.97;;;14.17;;
56481;SDS011;42384;45.186;19.958;2023-03-18T06:47:01;22.67;;;13.60;;
56481;SDS011;42384;45.186;19.958;2023-03-18T06:49:27;20.90;;;12.52;;
56481;SDS011;42384;45.186;19.958;2023-03-18T06:51:53;21.10;;;12.57;;
56481;SDS011;42384;45.186;19.958;2023-03-18T06:54:20;17.58;;;10.32;;
56481;SDS011;42384;45.186;19.958;2023-03-18T06:56:47;14.52;;;9.88;;
56481;SDS011;42384;45.186;19.958;2023-03-18T06:59:13;16.40;;;9.90;;
56481;SDS011;42384;45.186;19.958;2023-03-18T07:01:39;34.40;;;11.93;;
56481;SDS011;42384;45.186;19.958;2023-03-18T07:04:05;17.85;;;10.32;;
56481;SDS011;42384;45.186;19.958;2023-03-18T07:06:32;14.95;;;10.48;;
56481;SDS011;42384;45.186;19.958;2023-03-18T07:08:58;21.63;;;10.38;;
56481;SDS011;42384;45.186;19.958;2023-03-18T07:11:25;17.75;;;10.57;;
56481;SDS011;42384;45.186;19.958;2023-03-18T07:13:51;22.20;;;10.85;;
56481;SDS011;42384;45.186;19.958;2023-03-18T07:16:18;20.40;;;10.30;;
56481;SDS011;42384;45.186;19.958;2023-03-18T07:18:44;12.48;;;8.63;;
56481;SDS011;42384;45.186;19.958;2023-03-18T07:21:10;16.43;;;8.80;;
56481;SDS011;42384;45.186;19.958;2023-03-18T07:23:38;16.35;;;9.52;;
56481;SDS011;42384;45.186;19.958;2023-03-18T07:26:05;18.42;;;9.60;;
56481;SDS011;42384;45.186;19.958;2023-03-18T07:28:31;17.97;;;10.33;;
56481;SDS011;42384;45.186;19.958;2023-03-18T07:30:57;17.73;;;9.98;;
56481;SDS011;42384;45.186;19.958;2023-03-18T07:33:24;15.13;;;9.07;;
56481;SDS011;42384;45.186;19.958;2023-03-18T07:35:50;13.87;;;9.27;;
56481;SDS011;42384;45.186;19.958;2023-03-18T07:38:16;13.32;;;9.30;;
56481;SDS011;42384;45.186;19.958;2023-03-18T07:40:43;16.93;;;9.30;;
56481;SDS011;42384;45.186;19.958;2023-03-18T07:43:09;17.40;;;10.20;;
56481;SDS011;42384;45.186;19.958;2023-03-18T07:45:35;19.83;;;10.63;;
56481;SDS011;42384;45.186;19.958;2023-03-18T07:48:02;18.30;;;9.60;;
56481;SDS011;42384;45.186;19.958;2023-03-18T07:50:29;18.35;;;9.45;;
56481;SDS011;42384;45.186;19.958;2023-03-18T07:52:56;13.52;;;9.32;;
56481;SDS011;42384;45.186;19.958;2023-03-18T07:55:22;16.10;;;9.60;;
56481;SDS011;42384;45.186;19.958;2023-03-18T07:57:48;21.93;;;10.37;;
56481;SDS011;42384;45.186;19.958;2023-03-18T08:00:15;13.07;;;8.75;;
56481;SDS011;42384;45.186;19.958;2023-03-18T08:02:41;14.27;;;8.65;;
56481;SDS011;42384;45.186;19.958;2023-03-18T08:05:07;14.38;;;8.57;;
56481;SDS011;42384;45.186;19.958;2023-03-18T08:07:34;13.18;;;7.32;;
56481;SDS011;42384;45.186;19.958;2023-03-18T08:10:01;10.65;;;8.15;;
56481;SDS011;42384;45.186;19.958;2023-03-18T08:12:27;11.63;;;8.07;;
56481;SDS011;42384;45.186;19.958;2023-03-18T08:14:53;11.13;;;8.03;;
56481;SDS011;42384;45.186;19.958;2023-03-18T08:17:20;13.27;;;8.20;;
56481;SDS011;42384;45.186;19.958;2023-03-18T08:19:47;12.38;;;8.13;;
56481;SDS011;42384;45.186;19.958;2023-03-18T08:22:13;9.90;;;7.03;;
56481;SDS011;42384;45.186;19.958;2023-03-18T08:24:40;10.38;;;7.38;;
56481;SDS011;42384;45.186;19.958;2023-03-18T08:27:06;13.20;;;7.35;;
56481;SDS011;42384;45.186;19.958;2023-03-18T08:29:33;12.50;;;7.05;;
56481;SDS011;42384;45.186;19.958;2023-03-18T08:32:00;11.00;;;6.45;;
56481;SDS011;42384;45.186;19.958;2023-03-18T08:34:26;12.57;;;7.50;;
56481;SDS011;42384;45.186;19.958;2023-03-18T08:36:52;13.23;;;7.43;;
56481;SDS011;42384;45.186;19.958;2023-03-18T08:39:18;11.77;;;6.60;;
56481;SDS011;42384;45.186;19.958;2023-03-18T08:41:45;15.48;;;7.75;;
56481;SDS011;42384;45.186;19.958;2023-03-18T08:44:11;10.77;;;7.10;;
56481;SDS011;42384;45.186;19.958;2023-03-18T08:46:38;13.33;;;7.17;;
56481;SDS011;42384;45.186;19.958;2023-03-18T08:49:04;13.35;;;7.30;;
56481;SDS011;42384;45.186;19.958;2023-03-18T08:51:32;15.63;;;8.35;;
56481;SDS011;42384;45.186;19.958;2023-03-18T08:53:58;15.48;;;8.13;;
56481;SDS011;42384;45.186;19.958;2023-03-18T08:56:24;15.35;;;8.82;;
56481;SDS011;42384;45.186;19.958;2023-03-18T08:58:51;12.85;;;8.23;;
56481;SDS011;42384;45.186;19.958;2023-03-18T09:01:17;15.65;;;9.57;;
56481;SDS011;42384;45.186;19.958;2023-03-18T09:03:47;14.75;;;8.45;;
56481;SDS011;42384;45.186;19.958;2023-03-18T09:06:14;13.70;;;9.00;;
56481;SDS011;42384;45.186;19.958;2023-03-18T09:08:40;13.07;;;8.40;;
56481;SDS011;42384;45.186;19.958;2023-03-18T09:13:34;32.13;;;10.30;;
56481;SDS011;42384;45.186;19.958;2023-03-18T09:16:00;17.88;;;9.57;;
56481;SDS011;42384;45.186;19.958;2023-03-18T09:18:27;14.57;;;8.73;;
56481;SDS011;42384;45.186;19.958;2023-03-18T09:20:53;18.57;;;9.10;;
56481;SDS011;42384;45.186;19.958;2023-03-18T09:25:47;13.60;;;7.68;;
56481;SDS011;42384;45.186;19.958;2023-03-18T09:30:40;13.02;;;8.48;;
56481;SDS011;42384;45.186;19.958;2023-03-18T09:33:07;15.80;;;9.10;;
56481;SDS011;42384;45.186;19.958;2023-03-18T09:35:35;12.25;;;8.27;;
56481;SDS011;42384;45.186;19.958;2023-03-18T09:38:02;21.30;;;12.20;;
56481;SDS011;42384;45.186;19.958;2023-03-18T09:40:33;19.27;;;11.27;;
56481;SDS011;42384;45.186;19.958;2023-03-18T09:45:52;18.42;;;10.50;;
56481;SDS011;42384;45.186;19.958;2023-03-18T09:48:34;16.90;;;11.13;;
56481;SDS011;42384;45.186;19.958;2023-03-18T09:51:15;17.30;;;10.50;;
56481;SDS011;42384;45.186;19.958;2023-03-18T09:56:18;16.30;;;9.30;;
56481;SDS011;42384;45.186;19.958;2023-03-18T10:01:21;16.73;;;9.80;;
56481;SDS011;42384;45.186;19.958;2023-03-18T10:04:05;15.85;;;10.75;;
56481;SDS011;42384;45.186;19.958;2023-03-18T10:06:35;14.90;;;10.50;;
56481;SDS011;42384;45.186;19.958;2023-03-18T10:09:12;17.48;;;10.90;;
56481;SDS011;42384;45.186;19.958;2023-03-18T10:11:43;31.50;;;10.80;;
56481;SDS011;42384;45.186;19.958;2023-03-18T10:16:43;17.52;;;10.60;;
56481;SDS011;42384;45.186;19.958;2023-03-18T10:19:12;17.33;;;10.27;;
56481;SDS011;42384;45.186;19.958;2023-03-18T10:21:41;21.83;;;11.48;;
56481;SDS011;42384;45.186;19.958;2023-03-18T10:26:48;20.70;;;13.10;;
56481;SDS011;42384;45.186;19.958;2023-03-18T10:29:24;30.80;;;19.27;;
56481;SDS011;42384;45.186;19.958;2023-03-18T10:37:17;14.43;;;8.68;;
56481;SDS011;42384;45.186;19.958;2023-03-18T10:39:43;12.27;;;8.52;;
56481;SDS011;42384;45.186;19.958;2023-03-18T10:42:19;12.77;;;8.43;;
56481;SDS011;42384;45.186;19.958;2023-03-18T10:44:45;15.48;;;9.35;;
56481;SDS011;42384;45.186;19.958;2023-03-18T10:47:14;16.80;;;8.90;;
56481;SDS011;42384;45.186;19.958;2023-03-18T10:55:19;12.02;;;7.40;;
56481;SDS011;42384;45.186;19.958;2023-03-18T10:57:47;10.57;;;7.75;;
56481;SDS011;42384;45.186;19.958;2023-03-18T11:00:26;12.37;;;7.40;;
56481;SDS011;42384;45.186;19.958;2023-03-18T11:02:53;9.77;;;7.30;;
56481;SDS011;42384;45.186;19.958;2023-03-18T11:05:22;43.03;;;24.38;;
56481;SDS011;42384;45.186;19.958;2023-03-18T11:10:24;14.75;;;9.18;;
56481;SDS011;42384;45.186;19.958;2023-03-18T11:12:58;11.20;;;7.53;;
56481;SDS011;42384;45.186;19.958;2023-03-18T11:15:26;11.18;;;8.02;;
56481;SDS011;42384;45.186;19.958;2023-03-18T11:17:52;10.98;;;7.57;;
56481;SDS011;42384;45.186;19.958;2023-03-18T11:20:33;13.07;;;6.78;;
56481;SDS011;42384;45.186;19.958;2023-03-18T11:23:17;11.95;;;7.25;;
56481;SDS011;42384;45.186;19.958;2023-03-18T11:25:45;12.07;;;7.25;;
56481;SDS011;42384;45.186;19.958;2023-03-18T11:28:20;12.48;;;7.65;;
56481;SDS011;42384;45.186;19.958;2023-03-18T11:30:48;14.48;;;6.72;;
56481;SDS011;42384;45.186;19.958;2023-03-18T11:33:17;11.43;;;6.82;;
56481;SDS011;42384;45.186;19.958;2023-03-18T11:38:13;9.93;;;6.90;;
56481;SDS011;42384;45.186;19.958;2023-03-18T11:40:39;13.68;;;6.63;;
56481;SDS011;42384;45.186;19.958;2023-03-18T11:43:14;11.10;;;6.90;;
56481;SDS011;42384;45.186;19.958;2023-03-18T11:48:32;13.20;;;7.70;;
56481;SDS011;42384;45.186;19.958;2023-03-18T11:56:56;8.55;;;5.50;;
56481;SDS011;42384;45.186;19.958;2023-03-18T12:01:27;10.35;;;5.55;;
56481;SDS011;42384;45.186;19.958;2023-03-18T12:03:59;9.80;;;5.60;;
56481;SDS011;42384;45.186;19.958;2023-03-18T12:06:28;7.95;;;4.90;;
56481;SDS011;42384;45.186;19.958;2023-03-18T12:17:18;8.95;;;5.03;;
56481;SDS011;42384;45.186;19.958;2023-03-18T12:22:01;5.63;;;3.83;;
56481;SDS011;42384;45.186;19.958;2023-03-18T12:37:25;7.32;;;4.25;;
56481;SDS011;42384;45.186;19.958;2023-03-18T12:39:58;7.07;;;3.55;;
56481;SDS011;42384;45.186;19.958;2023-03-18T12:42:29;7.30;;;3.70;;
56481;SDS011;42384;45.186;19.958;2023-03-18T12:45:00;7.22;;;3.78;;
56481;SDS011;42384;45.186;19.958;2023-03-18T12:47:38;7.97;;;3.72;;
56481;SDS011;42384;45.186;19.958;2023-03-18T12:50:19;12.20;;;4.10;;
56481;SDS011;42384;45.186;19.958;2023-03-18T12:52:47;6.15;;;3.58;;
56481;SDS011;42384;45.186;19.958;2023-03-18T12:55:22;5.68;;;3.70;;
56481;SDS011;42384;45.186;19.958;2023-03-18T12:58:01;5.80;;;3.63;;
56481;SDS011;42384;45.186;19.958;2023-03-18T13:00:36;5.93;;;3.78;;
56481;SDS011;42384;45.186;19.958;2023-03-18T13:05:37;6.90;;;4.03;;
56481;SDS011;42384;45.186;19.958;2023-03-18T13:08:48;11.23;;;4.13;;
56481;SDS011;42384;45.186;19.958;2023-03-18T13:11:42;9.27;;;5.40;;
56481;SDS011;42384;45.186;19.958;2023-03-18T13:13:42;7.78;;;3.90;;
56481;SDS011;42384;45.186;19.958;2023-03-18T13:16:09;8.32;;;3.92;;
56481;SDS011;42384;45.186;19.958;2023-03-18T13:18:48;6.28;;;4.18;;
56481;SDS011;42384;45.186;19.958;2023-03-18T13:21:17;7.50;;;3.88;;
56481;SDS011;42384;45.186;19.958;2023-03-18T13:42:42;9.18;;;4.75;;
56481;SDS011;42384;45.186;19.958;2023-03-18T13:45:26;9.93;;;5.43;;
56481;SDS011;42384;45.186;19.958;2023-03-18T13:48:00;7.15;;;4.63;;
56481;SDS011;42384;45.186;19.958;2023-03-18T13:52:57;7.40;;;4.57;;
56481;SDS011;42384;45.186;19.958;2023-03-18T13:55:26;7.00;;;4.93;;
56481;SDS011;42384;45.186;19.958;2023-03-18T14:00:41;8.88;;;4.28;;
56481;SDS011;42384;45.186;19.958;2023-03-18T14:03:15;6.68;;;4.22;;
56481;SDS011;42384;45.186;19.958;2023-03-18T14:05:50;7.78;;;3.90;;
56481;SDS011;42384;45.186;19.958;2023-03-18T14:13:51;7.47;;;3.95;;
56481;SDS011;42384;45.186;19.958;2023-03-18T14:16:27;10.30;;;4.88;;
56481;SDS011;42384;45.186;19.958;2023-03-18T14:19:00;6.70;;;4.05;;
56481;SDS011;42384;45.186;19.958;2023-03-18T14:21:29;8.13;;;4.93;;
56481;SDS011;42384;45.186;19.958;2023-03-18T14:26:41;8.30;;;4.00;;
56481;SDS011;42384;45.186;19.958;2023-03-18T14:32:05;6.60;;;3.97;;
56481;SDS011;42384;45.186;19.958;2023-03-18T14:37:28;6.15;;;3.97;;
56481;SDS011;42384;45.186;19.958;2023-03-18T14:44:59;5.83;;;3.53;;
56481;SDS011;42384;45.186;19.958;2023-03-18T14:47:32;7.40;;;3.80;;
56481;SDS011;42384;45.186;19.958;2023-03-18T14:50:03;7.03;;;3.85;;
56481;SDS011;42384;45.186;19.958;2023-03-18T14:52:31;7.95;;;4.13;;
56481;SDS011;42384;45.186;19.958;2023-03-18T14:55:00;7.07;;;3.90;;
56481;SDS011;42384;45.186;19.958;2023-03-18T14:57:27;9.93;;;3.60;;
56481;SDS011;42384;45.186;19.958;2023-03-18T14:59:53;8.83;;;4.17;;
56481;SDS011;42384;45.186;19.958;2023-03-18T15:02:22;9.65;;;4.10;;
56481;SDS011;42384;45.186;19.958;2023-03-18T15:04:53;9.05;;;4.13;;
56481;SDS011;42384;45.186;19.958;2023-03-18T15:07:21;12.88;;;4.35;;
56481;SDS011;42384;45.186;19.958;2023-03-18T15:09:50;12.23;;;4.43;;
56481;SDS011;42384;45.186;19.958;2023-03-18T15:12:17;7.77;;;4.23;;
56481;SDS011;42384;45.186;19.958;2023-03-18T15:14:44;11.80;;;4.53;;
56481;SDS011;42384;45.186;19.958;2023-03-18T15:17:14;7.07;;;4.10;;
56481;SDS011;42384;45.186;19.958;2023-03-18T15:19:43;9.30;;;4.78;;
56481;SDS011;42384;45.186;19.958;2023-03-18T15:22:15;11.00;;;5.18;;
56481;SDS011;42384;45.186;19.958;2023-03-18T15:24:44;8.90;;;4.18;;
56481;SDS011;42384;45.186;19.958;2023-03-18T15:27:14;9.50;;;5.18;;
56481;SDS011;42384;45.186;19.958;2023-03-18T15:34:45;7.45;;;4.47;;
56481;SDS011;42384;45.186;19.958;2023-03-18T15:37:35;7.18;;;4.28;;
56481;SDS011;42384;45.186;19.958;2023-03-18T15:42:45;7.88;;;4.78;;
56481;SDS011;42384;45.186;19.958;2023-03-18T15:45:15;12.90;;;5.05;;
56481;SDS011;42384;45.186;19.958;2023-03-18T15:47:43;8.25;;;4.75;;
56481;SDS011;42384;45.186;19.958;2023-03-18T15:50:23;9.23;;;5.17;;
56481;SDS011;42384;45.186;19.958;2023-03-18T15:52:50;8.90;;;4.93;;
56481;SDS011;42384;45.186;19.958;2023-03-18T15:55:28;10.18;;;5.30;;
56481;SDS011;42384;45.186;19.958;2023-03-18T15:57:59;8.57;;;4.90;;
56481;SDS011;42384;45.186;19.958;2023-03-18T16:00:26;18.30;;;5.40;;
56481;SDS011;42384;45.186;19.958;2023-03-18T16:02:52;11.20;;;4.93;;
56481;SDS011;42384;45.186;19.958;2023-03-18T16:05:20;8.57;;;5.00;;
56481;SDS011;42384;45.186;19.958;2023-03-18T16:07:47;8.38;;;5.25;;
56481;SDS011;42384;45.186;19.958;2023-03-18T16:10:13;9.23;;;6.18;;
56481;SDS011;42384;45.186;19.958;2023-03-18T16:12:46;10.23;;;4.90;;
56481;SDS011;42384;45.186;19.958;2023-03-18T16:15:14;8.20;;;5.18;;
56481;SDS011;42384;45.186;19.958;2023-03-18T16:17:42;9.60;;;5.38;;
56481;SDS011;42384;45.186;19.958;2023-03-18T16:20:16;9.38;;;5.05;;
56481;SDS011;42384;45.186;19.958;2023-03-18T16:22:42;28.77;;;18.60;;
56481;SDS011;42384;45.186;19.958;2023-03-18T16:25:10;69.55;;;40.53;;
56481;SDS011;42384;45.186;19.958;2023-03-18T16:27:41;8.50;;;5.30;;
56481;SDS011;42384;45.186;19.958;2023-03-18T16:32:50;10.60;;;5.57;;
56481;SDS011;42384;45.186;19.958;2023-03-18T16:35:18;10.30;;;6.70;;
56481;SDS011;42384;45.186;19.958;2023-03-18T16:37:45;13.85;;;7.45;;
56481;SDS011;42384;45.186;19.958;2023-03-18T16:40:16;11.10;;;6.10;;
56481;SDS011;42384;45.186;19.958;2023-03-18T16:42:43;10.25;;;6.00;;
56481;SDS011;42384;45.186;19.958;2023-03-18T16:45:18;11.10;;;6.45;;
56481;SDS011;42384;45.186;19.958;2023-03-18T16:47:47;11.70;;;6.65;;
56481;SDS011;42384;45.186;19.958;2023-03-18T16:50:16;11.23;;;6.72;;
56481;SDS011;42384;45.186;19.958;2023-03-18T16:52:42;12.77;;;8.23;;
56481;SDS011;42384;45.186;19.958;2023-03-18T16:55:12;18.52;;;10.45;;
56481;SDS011;42384;45.186;19.958;2023-03-18T16:57:41;13.38;;;7.93;;
56481;SDS011;42384;45.186;19.958;2023-03-18T17:00:26;9.07;;;6.47;;